createdAt,value
2018-09-18T00:01:26.611Z,48.00
2018-09-18T00:03:55.915Z,49.70
2018-09-18T00:06:25.113Z,48.40
2018-09-18T00:08:54.331Z,47.60
2018-09-18T00:11:24.015Z,47.70
2018-09-18T00:13:53.209Z,49.20
2018-09-18T00:16:22.408Z,50.00
2018-09-18T00:18:51.619Z,49.10
2018-09-18T00:21:20.797Z,48.90
2018-09-18T00:23:50.015Z,49.20
2018-09-18T00:26:19.372Z,49.80
2018-09-18T00:28:48.627Z,49.10
2018-09-18T00:31:17.840Z,49.30
2018-09-18T00:33:47.410Z,50.40
2018-09-18T00:36:16.600Z,50.20
2018-09-18T00:38:45.981Z,50.90
2018-09-18T00:41:15.399Z,50.60
2018-09-18T00:43:45.068Z,50.60
2018-09-18T00:46:14.263Z,49.90
2018-09-18T00:48:43.487Z,50.90
2018-09-18T00:51:12.686Z,50.70
2018-09-18T00:53:41.887Z,52.60
2018-09-18T00:56:12.667Z,50.90
2018-09-18T00:58:42.368Z,51.10
2018-09-18T01:01:11.565Z,50.00
2018-09-18T01:03:40.794Z,50.50
2018-09-18T01:06:09.994Z,50.30
2018-09-18T01:08:39.195Z,50.20
2018-09-18T01:11:08.445Z,50.10
2018-09-18T01:13:37.646Z,50.90
2018-09-18T01:16:06.859Z,50.80
2018-09-18T01:18:42.223Z,50.00
2018-09-18T01:21:12.079Z,50.50
2018-09-18T01:23:41.276Z,52.20
2018-09-18T01:26:10.624Z,53.80
2018-09-18T01:28:39.791Z,54.00
2018-09-18T01:31:09.005Z,53.50
2018-09-18T01:33:38.471Z,53.80
2018-09-18T01:36:07.659Z,52.30
2018-09-18T01:38:36.851Z,52.20
2018-09-18T01:41:06.454Z,53.10
2018-09-18T01:43:35.703Z,53.80
2018-09-18T01:46:04.904Z,52.40
2018-09-18T01:48:34.127Z,53.30
2018-09-18T01:51:03.320Z,52.00
2018-09-18T01:53:32.503Z,52.40
2018-09-18T01:56:01.777Z,53.00
2018-09-18T01:58:30.956Z,52.10
2018-09-18T02:01:00.775Z,53.20
2018-09-18T02:03:30.315Z,53.20
2018-09-18T02:05:59.643Z,53.60
2018-09-18T02:08:28.826Z,54.60
2018-09-18T02:10:58.048Z,56.80
2018-09-18T02:13:27.240Z,55.20
2018-09-18T02:15:56.445Z,56.10
2018-09-18T02:18:25.652Z,54.70
2018-09-18T02:20:54.855Z,54.50
2018-09-18T02:23:24.055Z,54.50
2018-09-18T02:25:53.609Z,54.60
2018-09-18T02:28:22.806Z,57.10
2018-09-18T02:30:51.995Z,54.80
2018-09-18T02:33:21.207Z,53.80
2018-09-18T02:35:50.411Z,53.90
2018-09-18T02:38:19.608Z,53.60
2018-09-18T02:40:48.887Z,55.40
2018-09-18T02:43:18.259Z,55.70
2018-09-18T02:45:47.460Z,55.00
2018-09-18T02:48:16.707Z,54.60
2018-09-18T02:50:45.906Z,55.70
2018-09-18T02:53:15.099Z,55.20
2018-09-18T02:55:44.327Z,55.10
2018-09-18T02:58:13.511Z,56.00
2018-09-18T03:00:42.704Z,54.80
2018-09-18T03:03:12.413Z,56.80
2018-09-18T03:05:41.888Z,56.80
2018-09-18T03:08:11.281Z,57.10
2018-09-18T03:10:41.132Z,58.50
2018-09-18T03:13:10.512Z,57.60
2018-09-18T03:15:39.712Z,59.10
2018-09-18T03:18:08.926Z,59.60
2018-09-18T03:20:38.123Z,59.30
2018-09-18T03:23:07.355Z,57.80
2018-09-18T03:25:36.584Z,59.20
2018-09-18T03:28:05.831Z,59.40
2018-09-18T03:30:35.155Z,59.50
2018-09-18T03:33:04.496Z,58.70
2018-09-18T03:35:33.738Z,60.10
2018-09-18T03:38:02.885Z,57.40
2018-09-18T03:40:32.080Z,59.00
2018-09-18T03:43:01.283Z,61.90
2018-09-18T03:45:30.471Z,60.20
2018-09-18T03:47:59.713Z,58.90
2018-09-18T03:50:29.364Z,59.40
2018-09-18T03:52:58.567Z,60.70
2018-09-18T03:55:28.219Z,60.40
2018-09-18T03:57:57.419Z,59.90
2018-09-18T04:00:26.624Z,60.30
2018-09-18T04:02:55.890Z,58.40
2018-09-18T04:05:25.832Z,59.70
2018-09-18T04:07:55.035Z,59.10
2018-09-18T04:10:24.668Z,59.30
2018-09-18T04:12:53.860Z,62.40
2018-09-18T04:15:23.160Z,62.90
2018-09-18T04:17:53.482Z,64.10
2018-09-18T04:20:22.772Z,66.20
2018-09-18T04:22:51.975Z,63.20
2018-09-18T04:25:21.194Z,61.40
2018-09-18T04:27:50.427Z,62.20
2018-09-18T04:30:19.627Z,61.90
2018-09-18T04:32:48.840Z,62.90
2018-09-18T04:35:18.040Z,62.60
2018-09-18T04:37:47.223Z,64.00
2018-09-18T04:40:17.198Z,64.30
2018-09-18T04:42:46.375Z,63.70
2018-09-18T04:45:15.573Z,64.20
2018-09-18T04:47:44.810Z,63.10
2018-09-18T04:50:14.003Z,66.60
2018-09-18T04:52:43.202Z,66.50
2018-09-18T04:55:12.449Z,66.10
2018-09-18T04:57:41.647Z,64.40
2018-09-18T05:00:10.843Z,64.40
2018-09-18T05:02:40.513Z,65.40
2018-09-18T05:05:09.859Z,66.30
2018-09-18T05:07:39.867Z,65.10
2018-09-18T05:10:09.123Z,66.50
2018-09-18T05:12:38.322Z,64.20
2018-09-18T05:15:07.523Z,66.00
2018-09-18T05:17:36.764Z,66.80
2018-09-18T05:20:06.430Z,69.40
2018-09-18T05:22:35.599Z,68.50
2018-09-18T05:25:05.568Z,66.80
2018-09-18T05:27:34.752Z,70.00
2018-09-18T05:30:04.062Z,73.30
2018-09-18T05:32:33.284Z,68.40
2018-09-18T05:35:02.488Z,69.80
2018-09-18T05:37:31.799Z,68.00
2018-09-18T05:40:01.040Z,66.10
2018-09-18T05:42:30.247Z,68.40
2018-09-18T05:44:59.507Z,67.40
2018-09-18T05:47:28.781Z,67.50
2018-09-18T05:49:57.981Z,67.30
2018-09-18T05:52:27.204Z,67.40
2018-09-18T05:54:56.419Z,66.50
2018-09-18T05:57:25.639Z,67.50
2018-09-18T05:59:54.820Z,66.50
2018-09-18T06:02:24.283Z,68.10
2018-09-18T06:04:53.525Z,66.90
2018-09-18T06:07:22.717Z,68.90
2018-09-18T06:09:52.287Z,69.20
2018-09-18T06:12:21.523Z,68.70
2018-09-18T06:14:50.680Z,68.10
2018-09-18T06:17:19.951Z,71.20
2018-09-18T06:19:49.236Z,70.70
2018-09-18T06:22:18.499Z,71.90
2018-09-18T06:24:50.100Z,73.20
2018-09-18T06:27:23.368Z,72.70
2018-09-18T06:29:52.706Z,69.50
2018-09-18T06:32:22.035Z,72.30
2018-09-18T06:34:51.223Z,71.80
2018-09-18T06:37:20.465Z,71.20
2018-09-18T06:39:49.843Z,72.90
2018-09-18T06:42:19.214Z,69.50
2018-09-18T06:44:48.676Z,70.70
2018-09-18T06:47:18.267Z,69.00
2018-09-18T06:49:47.451Z,70.30
2018-09-18T06:52:19.383Z,72.10
2018-09-18T06:54:48.796Z,71.90
2018-09-18T06:57:20.557Z,70.50
2018-09-18T06:59:50.931Z,69.70
2018-09-18T07:02:20.299Z,71.40
2018-09-18T07:04:51.472Z,70.30
2018-09-18T07:07:22.740Z,69.40
2018-09-18T07:09:54.315Z,69.30
2018-09-18T07:12:23.995Z,69.50
2018-09-18T07:14:54.879Z,68.30
2018-09-18T07:17:24.371Z,70.00
2018-09-18T07:19:53.739Z,69.60
2018-09-18T07:22:22.951Z,71.00
2018-09-18T07:24:52.168Z,72.30
2018-09-18T07:27:22.178Z,70.80
2018-09-18T07:29:51.767Z,69.00
2018-09-18T07:32:20.964Z,71.20
2018-09-18T07:34:50.255Z,70.70
2018-09-18T07:37:20.479Z,69.90
2018-09-18T07:39:49.707Z,69.90
2018-09-18T07:42:18.988Z,69.50
2018-09-18T07:44:48.231Z,71.10
2018-09-18T07:47:18.800Z,70.90
2018-09-18T07:49:47.993Z,71.10
2018-09-18T07:52:18.151Z,70.20
2018-09-18T07:54:47.339Z,69.40
2018-09-18T07:57:17.687Z,68.40
2018-09-18T07:59:46.920Z,68.00
2018-09-18T08:02:16.119Z,68.10
2018-09-18T08:04:47.855Z,68.00
2018-09-18T08:07:22.544Z,68.30
2018-09-18T08:09:52.115Z,69.20
2018-09-18T08:12:24.220Z,69.50
2018-09-18T08:14:53.436Z,69.30
2018-09-18T08:17:25.477Z,68.80
2018-09-18T08:19:55.811Z,69.50
2018-09-18T08:22:26.015Z,70.00
2018-09-18T08:24:56.621Z,71.40
2018-09-18T08:27:25.816Z,71.20
2018-09-18T08:29:55.014Z,69.70
2018-09-18T08:32:27.669Z,70.80
2018-09-18T08:34:57.807Z,69.40
2018-09-18T08:37:27.015Z,70.30
2018-09-18T08:39:56.386Z,72.30
2018-09-18T08:42:25.451Z,70.00
2018-09-18T08:44:55.277Z,70.10
2018-09-18T08:47:24.550Z,71.60
2018-09-18T08:49:53.743Z,69.50
2018-09-18T08:52:23.318Z,70.40
2018-09-18T08:54:53.965Z,70.80
2018-09-18T08:57:24.156Z,70.30
2018-09-18T08:59:54.758Z,70.70
2018-09-18T09:02:24.016Z,71.10
2018-09-18T09:04:53.944Z,71.20
2018-09-18T09:07:24.460Z,70.50
2018-09-18T09:09:55.641Z,70.40
2018-09-18T09:12:25.154Z,69.30
2018-09-18T09:14:54.362Z,69.50
2018-09-18T09:17:23.582Z,69.20
2018-09-18T09:19:52.792Z,70.10
2018-09-18T09:22:22.148Z,69.60
2018-09-18T09:24:51.507Z,68.80
2018-09-18T09:27:20.723Z,68.70
2018-09-18T09:29:49.958Z,69.10
2018-09-18T09:32:19.497Z,68.50
2018-09-18T09:34:48.830Z,68.50
2018-09-18T09:37:18.082Z,69.10
2018-09-18T09:39:47.231Z,68.50
2018-09-18T09:42:16.424Z,68.10
2018-09-18T09:44:45.643Z,67.00
2018-09-18T09:47:15.059Z,67.30
2018-09-18T09:49:44.288Z,67.10
2018-09-18T09:52:13.488Z,66.80
2018-09-18T09:54:42.927Z,66.50
2018-09-18T09:57:12.107Z,66.00
2018-09-18T09:59:41.310Z,66.00
2018-09-18T10:02:16.588Z,65.40
2018-09-18T10:04:46.076Z,66.40
2018-09-18T10:07:15.588Z,65.20
2018-09-18T10:09:45.122Z,65.20
2018-09-18T10:12:14.291Z,63.80
2018-09-18T10:14:43.976Z,68.60
2018-09-18T10:17:13.168Z,69.00
2018-09-18T10:19:42.375Z,65.80
2018-09-18T10:22:11.569Z,68.70
2018-09-18T10:24:40.805Z,54.10
2018-09-18T10:27:09.990Z,52.30
2018-09-18T10:29:39.185Z,50.50
2018-09-18T10:32:08.644Z,47.70
2018-09-18T10:34:37.837Z,46.60
2018-09-18T10:37:07.073Z,45.60
2018-09-18T10:39:36.263Z,46.00
2018-09-18T10:42:05.568Z,44.90
2018-09-18T10:44:34.740Z,46.40
2018-09-18T10:47:04.824Z,44.70
2018-09-18T10:49:34.333Z,42.50
2018-09-18T10:52:03.495Z,42.10
2018-09-18T10:54:33.144Z,40.40
2018-09-18T10:57:02.348Z,40.50
2018-09-18T10:59:31.538Z,40.80
2018-09-18T11:02:00.857Z,41.30
2018-09-18T11:04:30.024Z,39.80
2018-09-18T11:06:59.275Z,38.20
2018-09-18T11:09:28.533Z,35.60
2018-09-18T11:11:58.211Z,36.10
2018-09-18T11:14:27.376Z,36.00
2018-09-18T11:16:57.546Z,36.60
2018-09-18T11:19:26.850Z,37.40
2018-09-18T11:21:56.151Z,38.10
2018-09-18T11:24:25.332Z,36.40
2018-09-18T11:26:54.483Z,37.60
2018-09-18T11:29:23.707Z,34.90
2018-09-18T11:31:52.948Z,35.70
2018-09-18T11:34:22.184Z,35.00
2018-09-18T11:36:51.364Z,35.00
2018-09-18T11:39:21.176Z,31.90
2018-09-18T11:41:50.404Z,33.30
2018-09-18T11:44:19.655Z,32.60
2018-09-18T11:46:48.913Z,32.90
2018-09-18T11:49:18.085Z,35.50
2018-09-18T11:51:47.419Z,33.00
2018-09-18T11:54:16.664Z,31.30
2018-09-18T11:56:46.164Z,31.70
2018-09-18T11:59:15.279Z,29.10
2018-09-18T12:01:44.875Z,32.20
2018-09-18T12:04:14.091Z,29.80
2018-09-18T12:06:43.298Z,28.50
2018-09-18T12:09:12.595Z,29.10
2018-09-18T12:11:42.263Z,27.30
2018-09-18T12:14:11.444Z,27.40
2018-09-18T12:16:40.675Z,29.30
2018-09-18T12:19:10.372Z,28.60
2018-09-18T12:21:39.552Z,28.00
2018-09-18T12:24:09.200Z,27.80
2018-09-18T12:26:38.436Z,26.80
2018-09-18T12:29:07.640Z,27.50
2018-09-18T12:31:36.977Z,26.20
2018-09-18T12:34:06.253Z,25.60
2018-09-18T12:36:35.472Z,27.00
2018-09-18T12:39:07.443Z,26.30
2018-09-18T12:41:36.682Z,27.40
2018-09-18T12:44:06.674Z,27.40
2018-09-18T12:46:36.148Z,25.90
2018-09-18T12:49:05.541Z,25.20
2018-09-18T12:51:34.703Z,26.40
2018-09-18T12:54:04.004Z,25.30
2018-09-18T12:56:33.159Z,25.50
2018-09-18T12:59:02.440Z,25.60
2018-09-18T13:01:31.571Z,24.70
2018-09-18T13:04:00.777Z,25.60
2018-09-18T13:06:30.130Z,25.90
2018-09-18T13:08:59.552Z,25.00
2018-09-18T13:11:28.740Z,25.70
2018-09-18T13:13:57.959Z,24.90
2018-09-18T13:16:27.168Z,26.90
2018-09-18T13:18:56.344Z,25.00
2018-09-18T13:21:25.955Z,25.30
2018-09-18T13:23:55.168Z,25.90
2018-09-18T13:26:24.364Z,26.20
2018-09-18T13:28:53.540Z,25.30
2018-09-18T13:31:23.127Z,25.50
2018-09-18T13:33:52.473Z,24.10
2018-09-18T13:36:21.670Z,24.70
2018-09-18T13:38:50.881Z,24.20
2018-09-18T13:41:20.219Z,23.70
2018-09-18T13:43:49.372Z,24.90
2018-09-18T13:46:18.658Z,24.70
2018-09-18T13:48:48.120Z,23.80
2018-09-18T13:51:17.304Z,23.40
2018-09-18T13:53:46.788Z,22.40
2018-09-18T13:56:16.066Z,22.70
2018-09-18T13:58:45.207Z,23.30
2018-09-18T14:01:14.507Z,24.00
2018-09-18T14:03:43.655Z,23.80
2018-09-18T14:06:12.847Z,23.60
2018-09-18T14:08:42.101Z,24.40
2018-09-18T14:11:11.304Z,22.60
2018-09-18T14:13:40.518Z,23.40
2018-09-18T14:16:09.778Z,23.80
2018-09-18T14:18:39.011Z,23.20
2018-09-18T14:21:08.955Z,23.70
2018-09-18T14:23:39.015Z,22.40
2018-09-18T14:26:08.292Z,23.10
2018-09-18T14:28:37.640Z,23.30
2018-09-18T14:31:06.951Z,23.60
2018-09-18T14:33:36.140Z,23.70
2018-09-18T14:36:05.372Z,22.90
2018-09-18T14:38:35.132Z,22.80
2018-09-18T14:41:04.473Z,23.20
2018-09-18T14:43:33.831Z,23.40
2018-09-18T14:46:03.143Z,22.70
2018-09-18T14:48:32.721Z,23.40
2018-09-18T14:51:01.945Z,23.10
2018-09-18T14:53:31.369Z,22.80
2018-09-18T14:56:00.564Z,22.90
2018-09-18T14:58:29.755Z,23.20
2018-09-18T15:00:59.140Z,23.20
2018-09-18T15:03:28.547Z,23.50
2018-09-18T15:05:57.798Z,23.40
2018-09-18T15:08:27.065Z,23.60
2018-09-18T15:10:56.248Z,23.30
2018-09-18T15:13:25.444Z,23.90
2018-09-18T15:15:54.931Z,23.70
2018-09-18T15:18:24.316Z,24.00
2018-09-18T15:20:53.504Z,24.70
2018-09-18T15:23:23.010Z,25.50
2018-09-18T15:25:52.539Z,25.80
2018-09-18T15:28:21.851Z,26.30
2018-09-18T15:30:51.111Z,26.70
2018-09-18T15:33:20.319Z,27.00
2018-09-18T15:35:49.517Z,27.30
2018-09-18T15:38:18.732Z,27.40
2018-09-18T15:40:47.903Z,27.40
2018-09-18T15:43:17.100Z,26.90
2018-09-18T15:45:47.559Z,26.30
2018-09-18T15:48:16.683Z,26.40
2018-09-18T15:50:45.842Z,26.40
2018-09-18T15:53:15.158Z,26.50
2018-09-18T15:55:44.386Z,26.70
2018-09-18T15:58:14.716Z,27.00
2018-09-18T16:00:45.247Z,27.10
2018-09-18T16:03:14.412Z,28.00
2018-09-18T16:05:43.795Z,28.10
2018-09-18T16:08:13.100Z,28.20
2018-09-18T16:10:42.307Z,27.70
2018-09-18T16:13:11.486Z,27.40
2018-09-18T16:15:41.035Z,27.30
2018-09-18T16:18:10.595Z,26.90
2018-09-18T16:20:39.806Z,27.20
2018-09-18T16:23:09.000Z,27.60
2018-09-18T16:25:38.191Z,28.20
2018-09-18T16:28:08.124Z,27.10
2018-09-18T16:30:37.580Z,27.10
2018-09-18T16:33:06.741Z,27.00
2018-09-18T16:35:35.935Z,26.90
2018-09-18T16:38:05.243Z,27.10
2018-09-18T16:40:34.474Z,27.00
2018-09-18T16:43:03.665Z,27.00
2018-09-18T16:45:33.140Z,27.40
2018-09-18T16:48:02.596Z,27.50
2018-09-18T16:50:31.881Z,28.30
2018-09-18T16:53:01.366Z,28.80
2018-09-18T16:55:30.693Z,29.90
2018-09-18T16:58:00.013Z,29.50
2018-09-18T17:00:31.537Z,29.80
2018-09-18T17:03:00.709Z,30.00
2018-09-18T17:05:29.941Z,30.20
2018-09-18T17:07:59.167Z,30.80
2018-09-18T17:10:28.488Z,31.70
2018-09-18T17:12:57.692Z,32.10
2018-09-18T17:15:26.998Z,32.40
2018-09-18T17:17:57.499Z,32.30
2018-09-18T17:20:26.873Z,32.80
2018-09-18T17:22:57.359Z,33.00
2018-09-18T17:25:26.703Z,33.40
2018-09-18T17:27:55.902Z,34.20
2018-09-18T17:30:25.431Z,34.10
2018-09-18T17:32:54.563Z,33.90
2018-09-18T17:35:23.852Z,34.30
2018-09-18T17:37:53.097Z,34.60
2018-09-18T17:40:22.506Z,34.90
2018-09-18T17:42:53.106Z,35.30
2018-09-18T17:45:22.456Z,34.90
2018-09-18T17:47:51.864Z,34.70
2018-09-18T17:50:21.179Z,35.20
2018-09-18T17:52:50.328Z,36.50
2018-09-18T17:55:19.781Z,36.60
2018-09-18T17:57:48.970Z,36.70
2018-09-18T18:00:18.640Z,36.60
2018-09-18T18:02:47.835Z,36.60
2018-09-18T18:05:22.288Z,37.10
2018-09-18T18:07:51.479Z,36.80
2018-09-18T18:10:21.353Z,35.70
2018-09-18T18:12:50.657Z,35.80
2018-09-18T18:15:20.637Z,36.60
2018-09-18T18:17:49.828Z,35.60
2018-09-18T18:20:19.510Z,35.90
2018-09-18T18:22:48.871Z,35.80
2018-09-18T18:25:18.397Z,35.80
2018-09-18T18:27:47.636Z,35.80
2018-09-18T18:30:16.852Z,35.80
2018-09-18T18:32:46.334Z,36.10
2018-09-18T18:35:15.661Z,36.30
2018-09-18T18:37:44.861Z,36.40
2018-09-18T18:40:14.064Z,36.80
2018-09-18T18:42:43.510Z,36.60
2018-09-18T18:45:12.944Z,37.30
2018-09-18T18:47:42.240Z,36.90
2018-09-18T18:50:11.474Z,37.50
2018-09-18T18:52:40.675Z,37.30
2018-09-18T18:55:09.968Z,37.70
2018-09-18T18:57:39.168Z,37.90
2018-09-18T19:00:08.447Z,37.50
2018-09-18T19:02:37.648Z,37.60
2018-09-18T19:05:07.334Z,37.60
2018-09-18T19:07:36.499Z,38.70
2018-09-18T19:10:05.937Z,38.20
2018-09-18T19:12:35.183Z,39.00
2018-09-18T19:15:04.533Z,38.90
2018-09-18T19:17:33.780Z,39.10
2018-09-18T19:20:03.153Z,39.00
2018-09-18T19:22:32.379Z,39.30
2018-09-18T19:25:01.659Z,40.00
2018-09-18T19:27:31.016Z,39.60
2018-09-18T19:30:00.322Z,39.80
2018-09-18T19:32:30.264Z,39.70
2018-09-18T19:34:59.505Z,39.80
2018-09-18T19:37:28.808Z,40.10
2018-09-18T19:39:58.009Z,40.30
2018-09-18T19:42:27.461Z,40.70
2018-09-18T19:44:56.644Z,40.90
2018-09-18T19:47:25.861Z,40.90
2018-09-18T19:49:55.343Z,41.30
2018-09-18T19:52:24.589Z,41.60
2018-09-18T19:54:56.048Z,40.90
2018-09-18T19:57:25.232Z,41.30
2018-09-18T19:59:54.478Z,41.50
2018-09-18T20:02:23.744Z,41.40
2018-09-18T20:04:52.984Z,42.20
2018-09-18T20:07:23.012Z,42.50
2018-09-18T20:09:52.435Z,41.80
2018-09-18T20:12:21.648Z,42.00
2018-09-18T20:14:50.845Z,42.30
2018-09-18T20:17:20.084Z,42.50
2018-09-18T20:19:49.344Z,42.40
2018-09-18T20:22:18.554Z,42.30
2018-09-18T20:24:48.555Z,42.20
2018-09-18T20:27:17.756Z,42.50
2018-09-18T20:29:47.034Z,42.80
2018-09-18T20:32:16.234Z,42.10
2018-09-18T20:34:45.756Z,42.70
2018-09-18T20:37:14.955Z,43.00
2018-09-18T20:39:44.155Z,42.90
2018-09-18T20:42:13.351Z,43.10
2018-09-18T20:44:42.588Z,43.40
2018-09-18T20:47:11.775Z,43.70
2018-09-18T20:49:40.988Z,43.80
2018-09-18T20:52:10.171Z,43.80
2018-09-18T20:54:39.447Z,44.10
2018-09-18T20:57:08.667Z,44.60
2018-09-18T20:59:37.876Z,44.10
2018-09-18T21:02:07.209Z,44.30
2018-09-18T21:04:36.319Z,44.40
2018-09-18T21:07:05.565Z,44.80
2018-09-18T21:09:34.820Z,44.60
2018-09-18T21:12:04.056Z,45.30
2018-09-18T21:14:33.248Z,45.20
2018-09-18T21:17:02.616Z,45.20
2018-09-18T21:19:31.830Z,46.10
2018-09-18T21:22:01.032Z,45.30
2018-09-18T21:24:30.283Z,45.30
2018-09-18T21:26:59.501Z,45.30
2018-09-18T21:29:28.699Z,45.20
2018-09-18T21:31:57.956Z,44.90
2018-09-18T21:34:27.160Z,45.20
2018-09-18T21:36:56.675Z,46.00
2018-09-18T21:39:26.326Z,46.00
2018-09-18T21:41:55.582Z,46.10
2018-09-18T21:44:24.735Z,46.40
2018-09-18T21:46:54.009Z,45.70
2018-09-18T21:49:23.280Z,46.20
2018-09-18T21:51:52.515Z,46.50
2018-09-18T21:54:21.755Z,46.20
2018-09-18T21:56:50.940Z,45.90
2018-09-18T21:59:20.147Z,45.70
2018-09-18T22:01:49.734Z,45.70
2018-09-18T22:04:18.932Z,46.30
2018-09-18T22:06:48.150Z,46.20
2018-09-18T22:09:17.351Z,46.40
2018-09-18T22:11:46.552Z,46.40
2018-09-18T22:14:15.745Z,46.40
2018-09-18T22:16:44.955Z,47.30
2018-09-18T22:19:14.140Z,46.50
2018-09-18T22:21:43.340Z,47.30
2018-09-18T22:24:12.812Z,47.20
2018-09-18T22:26:42.014Z,47.10
2018-09-18T22:29:11.209Z,47.30
2018-09-18T22:31:40.505Z,47.80
2018-09-18T22:34:09.709Z,47.60
2018-09-18T22:36:39.361Z,47.40
2018-09-18T22:39:09.839Z,47.60
2018-09-18T22:41:39.372Z,47.80
2018-09-18T22:44:08.595Z,47.80
2018-09-18T22:46:38.062Z,48.00
2018-09-18T22:49:07.272Z,48.20
2018-09-18T22:51:36.774Z,47.90
2018-09-18T22:54:06.345Z,48.50
2018-09-18T22:56:35.532Z,48.40
2018-09-18T22:59:04.743Z,49.00
2018-09-18T23:01:33.947Z,49.00
2018-09-18T23:04:03.143Z,48.60
2018-09-18T23:06:32.341Z,48.60
2018-09-18T23:09:02.072Z,49.00
2018-09-18T23:11:31.272Z,49.10
2018-09-18T23:14:00.483Z,49.30
2018-09-18T23:16:29.691Z,49.40
2018-09-18T23:18:58.993Z,49.60
2018-09-18T23:21:28.076Z,49.10
2018-09-18T23:23:57.290Z,49.70
2018-09-18T23:26:26.477Z,49.30
2018-09-18T23:28:55.697Z,49.40
2018-09-18T23:31:25.161Z,49.70
2018-09-18T23:33:54.374Z,50.10
2018-09-18T23:36:23.848Z,49.70
2018-09-18T23:38:53.067Z,49.60
2018-09-18T23:41:22.522Z,49.80
2018-09-18T23:43:52.045Z,49.60
2018-09-18T23:46:21.262Z,50.00
2018-09-18T23:48:50.456Z,49.90
2018-09-18T23:51:19.650Z,50.50
2018-09-18T23:53:49.183Z,50.10
2018-09-18T23:56:18.367Z,50.40
2018-09-18T23:58:47.798Z,50.60
